Time;durP1;ratioP1;P1;durP2;ratioP2;P2;SDS_P1;SDS_P2;PMS_P1;PMS_P2;Temp;Humidity;BMP_temperature;BMP_pressure;BME280_temperature;BME280_humidity;BME280_pressure;Samples;Min_cycle;Max_cycle;Signal;HPM_P1;HPM_P2
2021/12/06 00:00:29;;;;;;;6.57;1.75;;;;;;;;;;5009456;28;20072;-58
2021/12/06 00:02:56;;;;;;;2.13;1.23;;;;;;;;;;4992614;28;20116;-60
2021/12/06 00:05:23;;;;;;;2.75;1.65;;;;;;;;;;5008408;28;20041;-58
2021/12/06 00:07:49;;;;;;;3.45;1.67;;;;;;;;;;5010304;28;20449;-57
2021/12/06 00:10:15;;;;;;;4.72;2.03;;;;;;;;;;5009203;28;20042;-58
2021/12/06 00:12:43;;;;;;;3.28;1.42;;;;;;;;;;5009061;28;20119;-58
2021/12/06 00:15:09;;;;;;;5.55;1.75;;;;;;;;;;5009584;28;20045;-59
2021/12/06 00:17:35;;;;;;;3.25;1.55;;;;;;;;;;5007474;28;20045;-58
2021/12/06 00:20:01;;;;;;;5.90;2.53;;;;;;;;;;5008684;28;20056;-55
2021/12/06 00:22:27;;;;;;;2.90;1.55;;;;;;;;;;5009347;28;20033;-57
2021/12/06 00:24:54;;;;;;;3.80;1.70;;;;;;;;;;5008856;28;20042;-58
2021/12/06 00:27:20;;;;;;;4.38;1.88;;;;;;;;;;5008957;28;20487;-59
2021/12/06 00:29:47;;;;;;;2.90;1.60;;;;;;;;;;4992512;28;20057;-59
2021/12/06 00:32:13;;;;;;;6.72;2.65;;;;;;;;;;5012980;28;20085;-59
2021/12/06 00:34:39;;;;;;;4.18;1.70;;;;;;;;;;5006533;28;20125;-57
2021/12/06 00:37:17;;;;;;;8.43;2.33;;;;;;;;;;5010507;28;20050;-54
2021/12/06 00:39:45;;;;;;;5.32;2.17;;;;;;;;;;5008341;28;20045;-58
2021/12/06 00:42:11;;;;;;;3.85;2.22;;;;;;;;;;4990390;28;20075;-55
2021/12/06 00:44:37;;;;;;;3.40;1.65;;;;;;;;;;5009586;28;20038;-57
2021/12/06 00:47:03;;;;;;;4.30;2.55;;;;;;;;;;5010119;28;20050;-58
2021/12/06 00:49:29;;;;;;;8.23;2.45;;;;;;;;;;5008767;28;22144;-59
2021/12/06 00:51:54;;;;;;;18.33;2.05;;;;;;;;;;5009430;28;20093;-59
2021/12/06 00:54:20;;;;;;;4.38;2.78;;;;;;;;;;5007161;28;20053;-59
2021/12/06 00:56:46;;;;;;;5.82;2.22;;;;;;;;;;5010888;28;20542;-59
2021/12/06 00:59:12;;;;;;;7.35;3.17;;;;;;;;;;5010330;28;20045;-60
2021/12/06 01:01:38;;;;;;;3.55;2.00;;;;;;;;;;5010161;28;20049;-58
2021/12/06 01:04:05;;;;;;;5.20;2.88;;;;;;;;;;5010332;28;20038;-59
2021/12/06 01:06:31;;;;;;;4.88;2.22;;;;;;;;;;5009584;28;20096;-61
2021/12/06 01:08:57;;;;;;;4.75;2.38;;;;;;;;;;5009680;28;20073;-60
2021/12/06 01:11:23;;;;;;;24.05;4.03;;;;;;;;;;5009628;28;21055;-60
2021/12/06 01:13:49;;;;;;;3.60;1.88;;;;;;;;;;5007880;28;20063;-60
2021/12/06 01:16:15;;;;;;;2.45;1.35;;;;;;;;;;5006899;28;20046;-59
2021/12/06 01:18:40;;;;;;;28.05;2.63;;;;;;;;;;5007681;28;20493;-57
2021/12/06 01:39:43;;;;;;;5.47;3.03;;;;;;;;;;5007004;28;20069;-58
2021/12/06 01:42:10;;;;;;;5.00;2.78;;;;;;;;;;5008107;28;20025;-57
2021/12/06 01:44:41;;;;;;;7.80;3.50;;;;;;;;;;5008097;28;20041;-57
2021/12/06 01:47:14;;;;;;;3.67;2.55;;;;;;;;;;5007829;28;20055;-58
2021/12/06 01:49:45;;;;;;;8.70;7.90;;;;;;;;;;5007095;28;20233;-58
2021/12/06 01:52:13;;;;;;;5.38;2.47;;;;;;;;;;5008268;28;20044;-57
2021/12/06 01:54:39;;;;;;;7.63;2.30;;;;;;;;;;5006477;28;20057;-59
2021/12/06 01:57:06;;;;;;;7.43;2.22;;;;;;;;;;5008459;28;20041;-59
2021/12/06 01:59:32;;;;;;;5.07;3.00;;;;;;;;;;5007643;28;20951;-59
2021/12/06 02:01:58;;;;;;;8.77;4.15;;;;;;;;;;5007950;28;20104;-59
2021/12/06 02:04:24;;;;;;;6.22;2.80;;;;;;;;;;5006387;28;20087;-56
2021/12/06 02:06:50;;;;;;;6.13;3.15;;;;;;;;;;5007460;28;20049;-58
2021/12/06 02:09:16;;;;;;;5.55;2.90;;;;;;;;;;5007402;28;20038;-58
2021/12/06 02:11:44;;;;;;;3.78;2.33;;;;;;;;;;5007064;28;20041;-56
2021/12/06 02:14:33;;;;;;;6.25;3.13;;;;;;;;;;5005628;28;20041;-58
2021/12/06 02:17:09;;;;;;;8.23;3.00;;;;;;;;;;5005552;28;20121;-61
2021/12/06 02:19:40;;;;;;;4.07;2.17;;;;;;;;;;5006236;28;20044;-58
2021/12/06 02:22:07;;;;;;;4.72;2.38;;;;;;;;;;5007355;28;20088;-59
2021/12/06 02:24:33;;;;;;;7.30;3.70;;;;;;;;;;5005881;28;20045;-58
2021/12/06 02:27:00;;;;;;;6.35;3.85;;;;;;;;;;5007047;28;20491;-59
2021/12/06 02:29:26;;;;;;;5.07;2.97;;;;;;;;;;5005721;28;20102;-58
2021/12/06 02:31:52;;;;;;;9.13;3.35;;;;;;;;;;5006848;28;20025;-57
2021/12/06 02:35:43;;;;;;;8.23;4.00;;;;;;;;;;5012293;28;21307;-56
2021/12/06 02:38:09;;;;;;;4.28;2.83;;;;;;;;;;5020431;28;20049;-58
2021/12/06 02:40:36;;;;;;;3.45;2.47;;;;;;;;;;5002353;28;20561;-58
2021/12/06 02:43:04;;;;;;;10.30;3.97;;;;;;;;;;5001344;28;20600;-59
2021/12/06 02:45:30;;;;;;;3.92;2.28;;;;;;;;;;5001355;28;20188;-57
2021/12/06 02:47:57;;;;;;;4.85;3.15;;;;;;;;;;5004459;28;20102;-57
2021/12/06 02:50:24;;;;;;;6.00;3.65;;;;;;;;;;5003933;28;20076;-59
2021/12/06 02:52:51;;;;;;;8.13;3.50;;;;;;;;;;5003291;28;20079;-57
2021/12/06 02:55:52;;;;;;;6.28;3.72;;;;;;;;;;5003920;28;20084;-60
2021/12/06 02:58:21;;;;;;;3.97;2.25;;;;;;;;;;5001686;28;20795;-58
2021/12/06 03:00:56;;;;;;;3.40;2.20;;;;;;;;;;5004523;28;20030;-60
2021/12/06 03:03:22;;;;;;;5.40;3.05;;;;;;;;;;5004720;28;20077;-58
2021/12/06 03:05:50;;;;;;;4.75;2.47;;;;;;;;;;5004502;28;20046;-56
2021/12/06 03:08:33;;;;;;;5.10;3.03;;;;;;;;;;5004388;28;20088;-57
2021/12/06 03:10:59;;;;;;;6.43;3.05;;;;;;;;;;5004263;28;20522;-58
2021/12/06 03:13:25;;;;;;;4.50;3.25;;;;;;;;;;5002688;28;20036;-59
2021/12/06 03:15:50;;;;;;;5.78;2.95;;;;;;;;;;5003504;28;21837;-59
2021/12/06 03:18:16;;;;;;;4.30;2.25;;;;;;;;;;5004400;28;20045;-58
2021/12/06 03:20:42;;;;;;;13.30;4.40;;;;;;;;;;5001971;28;20180;-58
2021/12/06 03:23:08;;;;;;;5.68;3.25;;;;;;;;;;5002823;28;20038;-59
2021/12/06 03:25:34;;;;;;;5.82;3.72;;;;;;;;;;5003605;28;20132;-58
2021/12/06 03:28:00;;;;;;;5.75;3.13;;;;;;;;;;5004815;28;20046;-58
2021/12/06 03:30:26;;;;;;;5.68;3.47;;;;;;;;;;5004012;28;20038;-56
2021/12/06 03:32:52;;;;;;;9.52;3.53;;;;;;;;;;5005078;28;20045;-59
2021/12/06 03:35:18;;;;;;;3.97;2.50;;;;;;;;;;5002109;28;20125;-60
2021/12/06 03:37:44;;;;;;;6.20;3.42;;;;;;;;;;5004523;28;20042;-57
2021/12/06 03:40:10;;;;;;;4.25;3.03;;;;;;;;;;5004322;28;20073;-58
2021/12/06 03:42:36;;;;;;;5.65;3.13;;;;;;;;;;5001847;28;20048;-56
2021/12/06 03:45:04;;;;;;;4.10;2.67;;;;;;;;;;5000140;28;20042;-54
2021/12/06 03:47:31;;;;;;;5.97;3.38;;;;;;;;;;4991041;28;20052;-60
2021/12/06 03:49:58;;;;;;;11.63;4.95;;;;;;;;;;4990717;28;20046;-59
2021/12/06 03:52:23;;;;;;;5.57;2.58;;;;;;;;;;4989466;28;20035;-60
2021/12/06 03:54:49;;;;;;;2.65;1.80;;;;;;;;;;4989716;28;20121;-59
2021/12/06 03:57:15;;;;;;;4.22;2.67;;;;;;;;;;4991072;28;20042;-59
2021/12/06 03:59:41;;;;;;;4.07;2.92;;;;;;;;;;4988034;28;20052;-58
2021/12/06 04:02:08;;;;;;;5.95;3.55;;;;;;;;;;4990426;28;20084;-60
2021/12/06 04:04:34;;;;;;;5.18;3.17;;;;;;;;;;4990219;28;20601;-60
2021/12/06 04:07:00;;;;;;;3.88;2.83;;;;;;;;;;4991818;28;20077;-58
2021/12/06 04:09:26;;;;;;;7.03;3.42;;;;;;;;;;4988429;28;20042;-57
2021/12/06 04:11:51;;;;;;;6.10;3.83;;;;;;;;;;4989720;28;20046;-57
2021/12/06 04:14:17;;;;;;;12.70;3.80;;;;;;;;;;4989400;28;20046;-56
2021/12/06 04:16:43;;;;;;;5.35;2.60;;;;;;;;;;4989260;28;20135;-56
2021/12/06 04:19:10;;;;;;;14.45;3.75;;;;;;;;;;4990437;28;20242;-58
2021/12/06 04:21:36;;;;;;;4.82;3.30;;;;;;;;;;4991854;28;20471;-58
2021/12/06 04:24:02;;;;;;;4.85;3.03;;;;;;;;;;4992431;28;20030;-59
2021/12/06 04:26:28;;;;;;;13.38;4.28;;;;;;;;;;4990988;28;20193;-57
2021/12/06 04:29:00;;;;;;;18.50;6.18;;;;;;;;;;4993299;28;20103;-57
2021/12/06 04:31:28;;;;;;;6.20;3.13;;;;;;;;;;4992203;28;20057;-58
2021/12/06 04:33:54;;;;;;;12.65;5.05;;;;;;;;;;4989235;28;20057;-59
2021/12/06 04:36:20;;;;;;;6.45;2.97;;;;;;;;;;4988789;28;20046;-56
2021/12/06 04:38:46;;;;;;;6.05;3.72;;;;;;;;;;4988747;28;20030;-58
2021/12/06 04:41:11;;;;;;;5.18;3.10;;;;;;;;;;4987815;28;20041;-58
2021/12/06 04:43:37;;;;;;;5.05;3.00;;;;;;;;;;4986678;28;20035;-57
2021/12/06 04:46:06;;;;;;;8.02;3.38;;;;;;;;;;4986768;28;20379;-58
2021/12/06 04:48:32;;;;;;;4.68;3.03;;;;;;;;;;4988606;28;20084;-57
2021/12/06 04:50:58;;;;;;;7.10;3.05;;;;;;;;;;4989669;28;20111;-58
2021/12/06 04:53:26;;;;;;;6.78;3.88;;;;;;;;;;4987731;28;20053;-58
2021/12/06 04:56:02;;;;;;;7.28;3.58;;;;;;;;;;4988299;28;20061;-57
2021/12/06 04:58:31;;;;;;;5.03;3.45;;;;;;;;;;4986585;28;20034;-57
2021/12/06 05:01:02;;;;;;;7.00;3.33;;;;;;;;;;4987800;28;20102;-58
2021/12/06 05:03:28;;;;;;;3.67;2.42;;;;;;;;;;4988140;28;20034;-57
2021/12/06 05:05:58;;;;;;;1.95;1.35;;;;;;;;;;4988721;28;20088;-58
2021/12/06 05:08:26;;;;;;;5.75;3.03;;;;;;;;;;4988111;28;20058;-58
2021/12/06 05:10:54;;;;;;;5.50;3.38;;;;;;;;;;4988190;28;20489;-58
2021/12/06 05:13:20;;;;;;;3.90;2.47;;;;;;;;;;4987536;28;20089;-56
2021/12/06 05:15:46;;;;;;;4.13;2.65;;;;;;;;;;4986459;28;20076;-57
2021/12/06 05:18:12;;;;;;;3.95;2.47;;;;;;;;;;4988079;28;20038;-57
2021/12/06 05:20:38;;;;;;;6.43;3.25;;;;;;;;;;4986386;28;20444;-57
2021/12/06 05:23:05;;;;;;;2.88;1.98;;;;;;;;;;4985919;28;20118;-59
2021/12/06 05:25:31;;;;;;;9.90;2.05;;;;;;;;;;4986679;28;20740;-58
2021/12/06 05:27:59;;;;;;;6.80;3.92;;;;;;;;;;4986895;28;20038;-57
2021/12/06 05:30:26;;;;;;;5.82;3.25;;;;;;;;;;4986071;28;20049;-57
2021/12/06 05:32:53;;;;;;;4.03;1.98;;;;;;;;;;4987976;28;20123;-58
2021/12/06 05:35:19;;;;;;;8.68;2.60;;;;;;;;;;4986552;28;20048;-59
2021/12/06 05:37:47;;;;;;;7.18;3.47;;;;;;;;;;4986836;28;20038;-57
2021/12/06 05:40:33;;;;;;;4.50;2.47;;;;;;;;;;4984344;28;20099;-58
2021/12/06 05:43:00;;;;;;;5.55;2.30;;;;;;;;;;4986184;28;20038;-58
2021/12/06 05:45:27;;;;;;;4.63;2.60;;;;;;;;;;4985340;28;20037;-57
2021/12/06 05:47:53;;;;;;;2.15;1.40;;;;;;;;;;4987281;28;20049;-59
2021/12/06 05:50:20;;;;;;;4.57;3.08;;;;;;;;;;5000216;28;20439;-58
2021/12/06 05:52:46;;;;;;;2.90;1.77;;;;;;;;;;4986080;28;20041;-58
2021/12/06 05:55:13;;;;;;;4.78;2.03;;;;;;;;;;4986296;28;20440;-53
2021/12/06 05:57:39;;;;;;;4.85;2.20;;;;;;;;;;4986915;28;20038;-55
2021/12/06 06:00:07;;;;;;;5.57;2.55;;;;;;;;;;4986791;28;20034;-58
2021/12/06 06:02:32;;;;;;;1.77;1.02;;;;;;;;;;4985587;28;20110;-58
2021/12/06 06:04:58;;;;;;;4.18;2.53;;;;;;;;;;4985264;28;20042;-57
2021/12/06 06:07:24;;;;;;;3.45;2.05;;;;;;;;;;4985835;28;20101;-59
2021/12/06 06:09:50;;;;;;;1.58;0.90;;;;;;;;;;4986787;28;20034;-59
2021/12/06 06:12:16;;;;;;;2.13;1.23;;;;;;;;;;4985632;28;20108;-58
2021/12/06 06:14:41;;;;;;;2.55;1.60;;;;;;;;;;4987416;28;20096;-54
2021/12/06 06:17:14;;;;;;;3.40;1.65;;;;;;;;;;4985990;28;20045;-55
2021/12/06 06:19:43;;;;;;;3.92;1.92;;;;;;;;;;4983762;28;20129;-56
2021/12/06 06:22:08;;;;;;;4.07;2.30;;;;;;;;;;4986695;28;20068;-58
2021/12/06 06:24:34;;;;;;;4.18;2.42;;;;;;;;;;4984503;28;20559;-58
2021/12/06 06:27:00;;;;;;;3.80;1.98;;;;;;;;;;4987392;28;20491;-56
2021/12/06 06:29:26;;;;;;;1.88;1.17;;;;;;;;;;4985714;28;20204;-55
2021/12/06 06:31:52;;;;;;;4.75;1.98;;;;;;;;;;4986144;28;20045;-58
2021/12/06 06:34:18;;;;;;;1.75;1.23;;;;;;;;;;4986295;28;20050;-58
2021/12/06 06:36:44;;;;;;;11.50;2.28;;;;;;;;;;4987763;28;20042;-57
2021/12/06 06:39:10;;;;;;;6.00;1.55;;;;;;;;;;4986982;28;20050;-57
2021/12/06 06:41:36;;;;;;;2.47;1.55;;;;;;;;;;4985383;28;20038;-57
2021/12/06 06:44:03;;;;;;;1.77;1.20;;;;;;;;;;4986297;28;20104;-57
2021/12/06 06:46:29;;;;;;;2.20;1.45;;;;;;;;;;4985102;28;20034;-57
2021/12/06 06:48:56;;;;;;;3.88;1.48;;;;;;;;;;4986309;28;20045;-59
2021/12/06 06:51:23;;;;;;;2.53;1.23;;;;;;;;;;4986287;28;20491;-60
2021/12/06 06:53:49;;;;;;;2.33;1.63;;;;;;;;;;4986292;28;20054;-57
2021/12/06 06:56:14;;;;;;;2.08;1.10;;;;;;;;;;4985660;28;21904;-56
2021/12/06 06:58:40;;;;;;;2.65;1.58;;;;;;;;;;4985727;28;20670;-58
2021/12/06 07:01:06;;;;;;;1.92;0.98;;;;;;;;;;4985997;28;20049;-57
2021/12/06 07:03:32;;;;;;;1.85;1.15;;;;;;;;;;4985021;28;20610;-55
2021/12/06 07:06:01;;;;;;;2.22;1.30;;;;;;;;;;4985652;28;20053;-56
2021/12/06 07:08:28;;;;;;;1.50;0.93;;;;;;;;;;4985717;28;20049;-56
2021/12/06 07:10:55;;;;;;;2.53;1.88;;;;;;;;;;4985151;28;20176;-58
2021/12/06 07:13:21;;;;;;;8.23;2.88;;;;;;;;;;4984798;28;20038;-57
2021/12/06 07:15:48;;;;;;;4.35;2.22;;;;;;;;;;4985241;28;20042;-57
2021/12/06 07:18:14;;;;;;;3.15;1.40;;;;;;;;;;4985905;28;20039;-58
2021/12/06 07:20:40;;;;;;;1.95;1.33;;;;;;;;;;4986080;28;20406;-59
2021/12/06 07:23:05;;;;;;;3.70;1.83;;;;;;;;;;4989663;28;20038;-58
2021/12/06 07:25:33;;;;;;;2.92;1.45;;;;;;;;;;4987995;28;20042;-54
2021/12/06 07:28:00;;;;;;;1.42;1.08;;;;;;;;;;4988575;28;20105;-55
2021/12/06 07:30:26;;;;;;;2.45;1.13;;;;;;;;;;4989349;28;20808;-57
2021/12/06 07:32:52;;;;;;;6.68;2.05;;;;;;;;;;4989690;28;20038;-57
2021/12/06 07:35:19;;;;;;;3.13;1.15;;;;;;;;;;4989146;28;20058;-58
2021/12/06 07:37:44;;;;;;;3.35;1.65;;;;;;;;;;4991233;28;20053;-59
2021/12/06 07:40:11;;;;;;;2.17;1.17;;;;;;;;;;4989824;28;20037;-59
2021/12/06 07:42:37;;;;;;;3.35;1.85;;;;;;;;;;4988764;28;20073;-58
2021/12/06 07:45:05;;;;;;;2.35;1.60;;;;;;;;;;4990121;28;20124;-57
2021/12/06 07:47:31;;;;;;;4.28;2.13;;;;;;;;;;4988817;28;20165;-58
2021/12/06 07:49:57;;;;;;;1.92;1.10;;;;;;;;;;4989187;28;20038;-59
2021/12/06 07:52:23;;;;;;;3.28;1.42;;;;;;;;;;4989250;28;20044;-57
2021/12/06 07:54:48;;;;;;;3.50;2.33;;;;;;;;;;4990098;28;20158;-59
2021/12/06 07:57:14;;;;;;;2.42;1.48;;;;;;;;;;4990753;28;20057;-58
2021/12/06 07:59:40;;;;;;;4.75;2.35;;;;;;;;;;4990440;28;20057;-57
2021/12/06 08:02:08;;;;;;;3.25;1.40;;;;;;;;;;4989403;28;20031;-56
2021/12/06 08:04:34;;;;;;;2.72;1.55;;;;;;;;;;4988456;28;20537;-57
2021/12/06 08:07:00;;;;;;;6.28;3.00;;;;;;;;;;4989387;28;20042;-56
2021/12/06 08:09:26;;;;;;;2.85;1.75;;;;;;;;;;4988135;28;20038;-57
2021/12/06 08:11:52;;;;;;;5.30;2.00;;;;;;;;;;4988838;28;20034;-58
2021/12/06 08:14:19;;;;;;;31.23;1.83;;;;;;;;;;4987998;28;20086;-59
2021/12/06 08:16:45;;;;;;;6.53;1.30;;;;;;;;;;4989838;28;20053;-59
2021/12/06 08:19:11;;;;;;;1.10;0.88;;;;;;;;;;4989007;28;20036;-58
2021/12/06 08:21:37;;;;;;;4.72;2.13;;;;;;;;;;4987997;28;23626;-59
2021/12/06 08:24:04;;;;;;;4.20;2.38;;;;;;;;;;4987590;28;20133;-58
2021/12/06 08:26:31;;;;;;;3.63;1.67;;;;;;;;;;4987989;28;20501;-59
2021/12/06 08:28:57;;;;;;;2.90;1.52;;;;;;;;;;4989273;28;20034;-57
2021/12/06 08:31:23;;;;;;;2.40;1.65;;;;;;;;;;4988164;28;20141;-59
2021/12/06 08:33:50;;;;;;;3.65;1.58;;;;;;;;;;4988798;28;20759;-57
2021/12/06 08:36:16;;;;;;;2.95;1.52;;;;;;;;;;4989607;28;20037;-59
2021/12/06 08:38:43;;;;;;;2.78;1.80;;;;;;;;;;4988641;28;20041;-58
2021/12/06 08:41:14;;;;;;;5.38;3.22;;;;;;;;;;4989134;28;20046;-58
2021/12/06 08:43:41;;;;;;;3.28;1.80;;;;;;;;;;4988560;28;20542;-59
2021/12/06 08:46:27;;;;;;;4.88;2.03;;;;;;;;;;4989600;28;20042;-58
2021/12/06 08:48:53;;;;;;;3.00;1.67;;;;;;;;;;4987606;28;20053;-59
2021/12/06 08:51:27;;;;;;;6.43;2.60;;;;;;;;;;5003495;28;20117;-59
2021/12/06 08:53:53;;;;;;;3.42;1.70;;;;;;;;;;4988672;28;20137;-56
2021/12/06 08:56:19;;;;;;;4.78;2.75;;;;;;;;;;4989643;28;20101;-57
2021/12/06 08:58:45;;;;;;;4.80;2.60;;;;;;;;;;4989887;28;20041;-57
2021/12/06 09:01:11;;;;;;;4.13;2.00;;;;;;;;;;4988007;28;20038;-56
2021/12/06 09:03:37;;;;;;;6.90;1.73;;;;;;;;;;4989372;28;20038;-58
2021/12/06 09:06:05;;;;;;;6.55;2.38;;;;;;;;;;4991217;28;20034;-58
2021/12/06 09:08:31;;;;;;;4.43;2.05;;;;;;;;;;4988600;28;20092;-56
2021/12/06 09:10:57;;;;;;;7.15;2.95;;;;;;;;;;4990539;28;20041;-58
2021/12/06 09:13:28;;;;;;;3.90;1.85;;;;;;;;;;4988414;28;20228;-58
2021/12/06 09:15:55;;;;;;;2.90;1.98;;;;;;;;;;4991856;28;20050;-55
2021/12/06 09:18:21;;;;;;;4.40;2.30;;;;;;;;;;4989393;28;20080;-57
2021/12/06 09:20:48;;;;;;;3.95;2.15;;;;;;;;;;4989829;28;20133;-58
2021/12/06 09:23:14;;;;;;;5.20;2.13;;;;;;;;;;4988578;28;20048;-59
2021/12/06 09:25:40;;;;;;;3.33;2.05;;;;;;;;;;4988541;28;20399;-59
2021/12/06 09:28:06;;;;;;;5.70;2.13;;;;;;;;;;4989194;28;20109;-57
2021/12/06 09:30:33;;;;;;;5.43;2.15;;;;;;;;;;4988002;28;20049;-56
2021/12/06 09:33:00;;;;;;;5.63;2.60;;;;;;;;;;4987578;28;20656;-59
2021/12/06 09:35:28;;;;;;;6.60;2.30;;;;;;;;;;4987264;28;20065;-58
2021/12/06 09:37:56;;;;;;;3.10;1.67;;;;;;;;;;4988151;28;20058;-58
2021/12/06 09:40:22;;;;;;;4.63;2.35;;;;;;;;;;4986875;28;20038;-59
2021/12/06 09:42:48;;;;;;;9.70;2.85;;;;;;;;;;4990832;28;20484;-59
2021/12/06 09:45:18;;;;;;;4.15;2.03;;;;;;;;;;4990572;28;20368;-58
2021/12/06 09:47:50;;;;;;;4.05;1.75;;;;;;;;;;4986784;28;20042;-60
2021/12/06 09:50:16;;;;;;;4.65;1.75;;;;;;;;;;4988838;28;20038;-58
2021/12/06 09:52:42;;;;;;;4.70;2.42;;;;;;;;;;4988398;28;20026;-59
2021/12/06 09:55:09;;;;;;;4.55;1.85;;;;;;;;;;4990318;28;20050;-58
2021/12/06 09:57:35;;;;;;;4.22;2.10;;;;;;;;;;4987232;28;20042;-57
2021/12/06 10:00:01;;;;;;;3.88;2.22;;;;;;;;;;4989473;28;20072;-57
2021/12/06 10:02:27;;;;;;;5.88;2.35;;;;;;;;;;4988870;28;20042;-57
2021/12/06 10:04:55;;;;;;;5.30;2.08;;;;;;;;;;4987391;28;20395;-56
2021/12/06 10:07:22;;;;;;;3.40;1.80;;;;;;;;;;4987311;28;20423;-57
2021/12/06 10:09:50;;;;;;;5.10;2.30;;;;;;;;;;4988200;28;20038;-57
2021/12/06 10:12:17;;;;;;;3.38;2.13;;;;;;;;;;4987851;28;20093;-57
2021/12/06 10:14:46;;;;;;;3.10;1.63;;;;;;;;;;4986338;28;20573;-54
2021/12/06 10:17:15;;;;;;;4.00;2.10;;;;;;;;;;4986230;28;20645;-59
2021/12/06 10:19:41;;;;;;;3.35;2.30;;;;;;;;;;4985740;28;20579;-59
2021/12/06 10:22:07;;;;;;;6.88;2.95;;;;;;;;;;4986435;28;20125;-58
2021/12/06 10:24:33;;;;;;;3.20;1.65;;;;;;;;;;4987773;28;20124;-53
2021/12/06 10:27:06;;;;;;;3.85;2.33;;;;;;;;;;4988235;28;20184;-60
2021/12/06 10:29:38;;;;;;;12.63;2.55;;;;;;;;;;4987072;28;20181;-56
2021/12/06 10:32:09;;;;;;;2.65;1.35;;;;;;;;;;4987903;28;20127;-53
2021/12/06 10:34:35;;;;;;;3.20;1.65;;;;;;;;;;4986678;28;20499;-55
2021/12/06 10:37:01;;;;;;;2.15;0.80;;;;;;;;;;4988163;28;20046;-55
2021/12/06 10:39:34;;;;;;;7.03;2.85;;;;;;;;;;4986432;28;20072;-58
2021/12/06 10:42:00;;;;;;;3.55;1.88;;;;;;;;;;4985221;28;20559;-57
2021/12/06 10:44:26;;;;;;;3.05;1.95;;;;;;;;;;4986303;28;20053;-57
2021/12/06 10:46:52;;;;;;;2.50;1.65;;;;;;;;;;4987575;28;20145;-58
2021/12/06 10:49:19;;;;;;;3.85;1.88;;;;;;;;;;4986492;28;20093;-58
2021/12/06 10:51:45;;;;;;;4.35;2.70;;;;;;;;;;4987988;28;20132;-57
2021/12/06 10:54:19;;;;;;;3.55;1.88;;;;;;;;;;4987910;28;20057;-57
2021/12/06 10:56:48;;;;;;;4.03;1.70;;;;;;;;;;4990641;28;20042;-55
2021/12/06 10:59:13;;;;;;;5.93;1.58;;;;;;;;;;4990540;28;20560;-58
2021/12/06 11:01:39;;;;;;;3.53;2.03;;;;;;;;;;4988734;28;20049;-57
2021/12/06 11:04:08;;;;;;;3.15;1.75;;;;;;;;;;4991480;28;20037;-59
2021/12/06 11:06:43;;;;;;;2.83;1.60;;;;;;;;;;4989980;28;20068;-57
2021/12/06 11:09:10;;;;;;;8.23;1.98;;;;;;;;;;4990244;28;20458;-58
2021/12/06 11:11:42;;;;;;;2.35;1.25;;;;;;;;;;4989469;28;20038;-58
2021/12/06 11:14:11;;;;;;;3.15;1.55;;;;;;;;;;4990063;28;20177;-56
2021/12/06 11:16:39;;;;;;;3.20;2.08;;;;;;;;;;4991114;28;20045;-57
2021/12/06 11:19:05;;;;;;;4.43;2.50;;;;;;;;;;4991076;28;20069;-58
2021/12/06 11:21:43;;;;;;;3.78;1.95;;;;;;;;;;4988726;28;20154;-57
2021/12/06 11:24:09;;;;;;;2.95;1.45;;;;;;;;;;4990036;28;20053;-59
2021/12/06 11:26:37;;;;;;;6.00;2.75;;;;;;;;;;4989764;28;20372;-59
2021/12/06 11:29:06;;;;;;;5.60;2.33;;;;;;;;;;4991971;28;20045;-59
2021/12/06 11:31:31;;;;;;;5.07;2.33;;;;;;;;;;4989616;28;20035;-57
2021/12/06 11:34:01;;;;;;;4.57;2.15;;;;;;;;;;4988691;28;20348;-59
2021/12/06 11:36:30;;;;;;;3.78;1.63;;;;;;;;;;4988657;28;20136;-57
2021/12/06 11:39:03;;;;;;;2.75;1.45;;;;;;;;;;4989267;28;20794;-59
2021/12/06 11:41:29;;;;;;;;;;;;;;;;;;4989247;28;20039;-59
2021/12/06 11:43:56;;;;;;;1.48;0.85;;;;;;;;;;4989405;28;20852;-58
2021/12/06 11:46:32;;;;;;;1.55;0.77;;;;;;;;;;4990247;28;20076;-58
2021/12/06 11:48:58;;;;;;;3.00;1.33;;;;;;;;;;4989279;28;20042;-58
2021/12/06 11:51:24;;;;;;;2.97;1.77;;;;;;;;;;4988718;28;20042;-58
2021/12/06 11:53:54;;;;;;;2.40;1.30;;;;;;;;;;4988696;28;20680;-58
2021/12/06 11:56:25;;;;;;;3.40;1.98;;;;;;;;;;4987684;28;20444;-59
2021/12/06 11:58:55;;;;;;;3.30;1.60;;;;;;;;;;4989659;28;20041;-59
2021/12/06 12:01:26;;;;;;;3.92;2.08;;;;;;;;;;4987167;28;20034;-59
2021/12/06 12:04:02;;;;;;;3.15;1.90;;;;;;;;;;4988306;28;20042;-59
2021/12/06 12:06:35;;;;;;;3.20;1.70;;;;;;;;;;4987638;28;20206;-58
2021/12/06 12:09:03;;;;;;;2.10;1.25;;;;;;;;;;4990372;28;20046;-58
2021/12/06 12:11:29;;;;;;;2.72;1.40;;;;;;;;;;4988718;28;20061;-57
2021/12/06 12:13:56;;;;;;;3.85;2.15;;;;;;;;;;4989324;28;20161;-59
2021/12/06 12:16:22;;;;;;;2.10;1.02;;;;;;;;;;4988396;28;20038;-59
2021/12/06 12:18:48;;;;;;;2.30;1.23;;;;;;;;;;4988293;28;20117;-58
2021/12/06 12:21:15;;;;;;;2.03;1.13;;;;;;;;;;4987732;28;20049;-57
2021/12/06 12:23:42;;;;;;;3.13;1.75;;;;;;;;;;4987723;28;20507;-59
2021/12/06 12:26:12;;;;;;;4.80;1.50;;;;;;;;;;4989368;28;20046;-59
2021/12/06 12:28:57;;;;;;;5.43;2.08;;;;;;;;;;4987843;28;20050;-58
2021/12/06 12:31:23;;;;;;;3.53;1.55;;;;;;;;;;4987995;28;20068;-59
2021/12/06 12:33:55;;;;;;;2.10;1.15;;;;;;;;;;4987667;28;20049;-58
2021/12/06 12:36:21;;;;;;;2.25;1.42;;;;;;;;;;4987128;28;20070;-57
2021/12/06 12:38:48;;;;;;;1.88;1.10;;;;;;;;;;4988003;28;20077;-58
2021/12/06 12:41:15;;;;;;;1.92;1.10;;;;;;;;;;4987351;28;20060;-56
2021/12/06 12:43:43;;;;;;;2.75;1.45;;;;;;;;;;4987876;28;20954;-59
2021/12/06 12:46:11;;;;;;;2.55;1.40;;;;;;;;;;4987013;28;20030;-58
2021/12/06 12:48:44;;;;;;;2.60;1.60;;;;;;;;;;4986982;28;20042;-59
2021/12/06 12:51:10;;;;;;;;;;;;;;;;;;4986391;28;20124;-57
2021/12/06 12:53:54;;;;;;;3.83;1.05;;;;;;;;;;4986047;28;19943;-58
2021/12/06 12:56:22;;;;;;;2.50;1.70;;;;;;;;;;4987678;28;20080;-58
2021/12/06 12:58:49;;;;;;;1.85;0.95;;;;;;;;;;4986339;28;20054;-58
2021/12/06 13:01:15;;;;;;;2.45;1.05;;;;;;;;;;4987629;28;20585;-58
2021/12/06 13:03:45;;;;;;;7.93;1.80;;;;;;;;;;4987234;28;20052;-56
2021/12/06 13:06:19;;;;;;;1.17;0.63;;;;;;;;;;4987368;28;20037;-57
2021/12/06 13:08:46;;;;;;;2.85;1.63;;;;;;;;;;4987834;28;20751;-58
2021/12/06 13:11:12;;;;;;;3.22;1.40;;;;;;;;;;4987398;28;20129;-59
2021/12/06 13:13:43;;;;;;;2.13;0.95;;;;;;;;;;4987190;28;20098;-58
2021/12/06 13:16:31;;;;;;;2.58;1.20;;;;;;;;;;4988270;28;20593;-58
2021/12/06 13:19:13;;;;;;;2.28;1.27;;;;;;;;;;4986542;28;20107;-57
2021/12/06 13:22:05;;;;;;;2.92;1.23;;;;;;;;;;4986671;28;20046;-59
2021/12/06 13:24:37;;;;;;;2.65;1.33;;;;;;;;;;4987838;28;20240;-58
2021/12/06 13:27:07;;;;;;;2.05;1.08;;;;;;;;;;4988436;28;20033;-57
2021/12/06 13:29:43;;;;;;;2.35;1.10;;;;;;;;;;4983679;28;20080;-56
2021/12/06 13:32:27;;;;;;;2.40;1.25;;;;;;;;;;4987212;28;20499;-58
2021/12/06 13:34:55;;;;;;;3.83;1.55;;;;;;;;;;4987653;28;20111;-60
2021/12/06 13:37:25;;;;;;;4.68;1.70;;;;;;;;;;4989433;28;20053;-59
2021/12/06 13:39:50;;;;;;;4.45;1.98;;;;;;;;;;4987958;28;20041;-57
2021/12/06 13:42:34;;;;;;;3.55;0.93;;;;;;;;;;4986469;28;20034;-58
2021/12/06 13:45:02;;;;;;;3.40;1.38;;;;;;;;;;4987844;28;20038;-58
2021/12/06 13:47:29;;;;;;;4.35;1.80;;;;;;;;;;4986690;28;20034;-56
2021/12/06 13:50:00;;;;;;;3.88;1.45;;;;;;;;;;4987270;28;20041;-58
2021/12/06 13:52:36;;;;;;;2.35;1.45;;;;;;;;;;4986549;28;20045;-58
2021/12/06 13:55:18;;;;;;;2.40;1.10;;;;;;;;;;4989271;28;20566;-58
2021/12/06 13:57:47;;;;;;;2.47;1.25;;;;;;;;;;4986178;28;20062;-58
2021/12/06 14:00:14;;;;;;;2.45;1.42;;;;;;;;;;4988605;28;20048;-59
2021/12/06 14:02:41;;;;;;;6.03;2.45;;;;;;;;;;4987813;28;20084;-58
2021/12/06 14:05:08;;;;;;;8.27;2.30;;;;;;;;;;4990393;28;20507;-58
2021/12/06 14:07:34;;;;;;;2.83;1.52;;;;;;;;;;4987975;28;20054;-58
2021/12/06 14:10:00;;;;;;;3.53;1.77;;;;;;;;;;4988015;28;20120;-60
2021/12/06 14:12:28;;;;;;;10.93;1.15;;;;;;;;;;4987541;28;20038;-57
2021/12/06 14:14:58;;;;;;;3.00;1.40;;;;;;;;;;4987415;28;20051;-56
2021/12/06 14:17:24;;;;;;;4.68;2.25;;;;;;;;;;4985256;28;20050;-58
2021/12/06 14:19:50;;;;;;;3.90;1.88;;;;;;;;;;4986724;28;20514;-57
2021/12/06 14:22:19;;;;;;;16.48;2.17;;;;;;;;;;4986117;28;20050;-59
2021/12/06 14:24:46;;;;;;;5.70;2.28;;;;;;;;;;4986077;28;20443;-61
2021/12/06 14:27:13;;;;;;;12.80;2.40;;;;;;;;;;4985434;28;20179;-58
2021/12/06 14:29:40;;;;;;;6.15;1.67;;;;;;;;;;4986331;28;20161;-57
2021/12/06 14:32:10;;;;;;;6.00;2.75;;;;;;;;;;4986513;28;20038;-59
2021/12/06 14:34:40;;;;;;;9.57;3.03;;;;;;;;;;4984669;28;20503;-56
2021/12/06 14:37:16;;;;;;;3.38;1.35;;;;;;;;;;4985964;28;20121;-59
2021/12/06 14:39:43;;;;;;;6.40;2.08;;;;;;;;;;4984705;28;20514;-58
2021/12/06 14:42:13;;;;;;;6.82;2.65;;;;;;;;;;4986140;28;20048;-57
2021/12/06 14:44:59;;;;;;;3.95;1.70;;;;;;;;;;4985677;28;20037;-60
2021/12/06 14:47:28;;;;;;;3.78;1.77;;;;;;;;;;4987259;28;20042;-56
2021/12/06 14:49:55;;;;;;;5.68;2.33;;;;;;;;;;4986123;28;20244;-56
2021/12/06 14:52:32;;;;;;;9.02;2.70;;;;;;;;;;4984682;28;20638;-56
2021/12/06 14:55:07;;;;;;;16.65;2.85;;;;;;;;;;4982834;28;20058;-59
2021/12/06 14:57:33;;;;;;;3.40;1.80;;;;;;;;;;4986632;28;20049;-57
2021/12/06 15:00:09;;;;;;;6.82;2.53;;;;;;;;;;4986889;28;20134;-58
2021/12/06 15:02:50;;;;;;;4.25;2.17;;;;;;;;;;4985263;28;20549;-56
2021/12/06 15:05:22;;;;;;;4.57;1.77;;;;;;;;;;4985414;28;20073;-58
2021/12/06 15:08:00;;;;;;;7.30;1.80;;;;;;;;;;4983792;28;20767;-55